Time;durP1;ratioP1;P1;durP2;ratioP2;P2;SDS_P1;SDS_P2;PMS_P1;PMS_P2;Temp;Humidity;BMP_temperature;BMP_pressure;BME280_temperature;BME280_humidity;BME280_pressure;Samples;Min_cycle;Max_cycle;Signal;HPM_P1;HPM_P2
2021/05/22 00:02:17;;;;;;;1.48;0.80;;;12.30;99.90;;;;;;5096565;28;20368;-78
2021/05/22 00:04:44;;;;;;;1.23;0.80;;;12.40;99.90;;;;;;5095372;28;20249;-77
2021/05/22 00:07:10;;;;;;;0.80;0.77;;;12.40;99.90;;;;;;5092803;28;20321;-78
2021/05/22 00:09:37;;;;;;;0.60;0.60;;;12.40;99.90;;;;;;5095446;28;20206;-78
2021/05/22 00:12:04;;;;;;;0.75;0.70;;;12.40;99.90;;;;;;5095762;28;20202;-76
2021/05/22 00:14:31;;;;;;;0.70;0.70;;;12.40;99.90;;;;;;5095977;28;20670;-76
2021/05/22 00:16:57;;;;;;;1.75;0.80;;;12.30;99.90;;;;;;5094833;28;20222;-77
2021/05/22 00:19:24;;;;;;;1.90;0.70;;;12.30;99.90;;;;;;5096184;28;20225;-77
2021/05/22 00:21:50;;;;;;;1.30;0.75;;;12.20;99.90;;;;;;5095481;28;20228;-77
2021/05/22 00:24:17;;;;;;;2.47;0.80;;;12.20;99.90;;;;;;5095067;28;20727;-77
2021/05/22 00:26:43;;;;;;;2.88;0.70;;;12.20;99.80;;;;;;5095063;28;20285;-77
2021/05/22 00:29:10;;;;;;;0.60;0.60;;;12.10;99.50;;;;;;5095599;28;20202;-77
2021/05/22 00:31:37;;;;;;;0.70;0.70;;;12.10;99.50;;;;;;5095413;28;20208;-77
2021/05/22 00:34:04;;;;;;;0.75;0.60;;;12.10;99.40;;;;;;5095469;28;20255;-77
2021/05/22 00:36:30;;;;;;;1.70;0.90;;;12.10;99.40;;;;;;5095275;28;20205;-78
2021/05/22 00:38:56;;;;;;;1.45;0.70;;;12.10;99.30;;;;;;5095468;28;20293;-77
2021/05/22 00:41:23;;;;;;;1.10;0.70;;;12.10;99.20;;;;;;5095339;28;20233;-77
2021/05/22 00:43:49;;;;;;;0.85;0.85;;;12.00;99.00;;;;;;5095077;28;20225;-77
2021/05/22 00:46:15;;;;;;;1.20;0.70;;;12.10;99.00;;;;;;5094700;28;20297;-77
2021/05/22 00:48:43;;;;;;;0.57;0.57;;;12.10;99.20;;;;;;5094375;28;20317;-77
2021/05/22 00:51:09;;;;;;;0.85;0.60;;;12.00;99.00;;;;;;5094649;28;20250;-77
2021/05/22 00:53:36;;;;;;;2.58;0.68;;;12.00;99.10;;;;;;5094756;28;20202;-77
2021/05/22 00:56:03;;;;;;;0.60;0.60;;;11.90;99.30;;;;;;5094250;28;20667;-77
2021/05/22 00:58:29;;;;;;;1.42;0.77;;;11.90;99.30;;;;;;5095149;28;20218;-77
2021/05/22 01:00:58;;;;;;;0.77;0.73;;;11.90;99.10;;;;;;5094936;28;20202;-77
2021/05/22 01:03:27;;;;;;;1.13;0.77;;;11.80;99.60;;;;;;5094780;28;20275;-78
2021/05/22 01:06:09;;;;;;;0.60;0.60;;;11.80;99.70;;;;;;5094798;28;20694;-78
2021/05/22 01:08:38;;;;;;;1.00;0.60;;;11.70;99.90;;;;;;5095381;28;20233;-77
2021/05/22 01:11:20;;;;;;;1.52;0.65;;;11.70;99.90;;;;;;5094911;28;20217;-77
2021/05/22 01:13:50;;;;;;;1.10;0.50;;;11.70;99.90;;;;;;5094867;28;20285;-77
2021/05/22 01:16:20;;;;;;;0.73;0.60;;;11.70;99.90;;;;;;5094322;28;20293;-77
2021/05/22 01:18:47;;;;;;;1.25;0.80;;;11.70;99.90;;;;;;5095020;28;20316;-77
2021/05/22 01:21:16;;;;;;;0.73;0.40;;;11.70;99.90;;;;;;5094307;28;20206;-77
2021/05/22 01:23:46;;;;;;;0.50;0.50;;;11.70;99.90;;;;;;5095079;28;20575;-78
2021/05/22 01:26:14;;;;;;;0.82;0.60;;;11.70;99.90;;;;;;5095328;28;20297;-78
2021/05/22 01:28:41;;;;;;;0.50;0.50;;;11.70;99.90;;;;;;5094930;28;20774;-78
2021/05/22 01:31:08;;;;;;;0.70;0.70;;;11.70;99.90;;;;;;5095210;28;20212;-78
2021/05/22 01:33:36;;;;;;;1.27;0.90;;;11.80;99.90;;;;;;5095512;28;20194;-78
2021/05/22 01:36:02;;;;;;;0.70;0.70;;;11.70;99.90;;;;;;5095494;28;20305;-78
2021/05/22 01:38:28;;;;;;;0.73;0.65;;;11.80;99.90;;;;;;5095395;28;20681;-78
2021/05/22 01:40:55;;;;;;;1.30;0.75;;;11.80;99.90;;;;;;5095172;28;20346;-78
2021/05/22 01:43:22;;;;;;;1.13;0.77;;;11.80;99.90;;;;;;5095094;28;20232;-78
2021/05/22 01:45:50;;;;;;;0.85;0.85;;;11.80;99.90;;;;;;5095361;28;20271;-78
2021/05/22 01:48:19;;;;;;;1.05;0.80;;;11.80;99.90;;;;;;5096135;28;20309;-78
2021/05/22 01:50:49;;;;;;;1.50;0.73;;;11.90;99.90;;;;;;5095102;28;20293;-78
2021/05/22 01:53:18;;;;;;;3.22;0.80;;;11.90;99.90;;;;;;5095597;28;20290;-78
2021/05/22 01:55:47;;;;;;;0.77;0.70;;;11.90;99.90;;;;;;5095139;28;20312;-78
2021/05/22 01:58:14;;;;;;;0.80;0.68;;;12.00;99.90;;;;;;5096138;28;20308;-78
2021/05/22 02:00:44;;;;;;;1.33;1.00;;;12.00;99.90;;;;;;5095926;28;20274;-78
2021/05/22 02:03:13;;;;;;;1.80;1.10;;;12.00;99.90;;;;;;5097108;28;20266;-78
2021/05/22 02:05:40;;;;;;;1.85;1.25;;;12.00;99.90;;;;;;5095653;28;20202;-78
2021/05/22 02:08:11;;;;;;;1.15;0.80;;;12.10;99.90;;;;;;5095074;28;20713;-78
2021/05/22 02:10:39;;;;;;;0.70;0.70;;;12.10;99.90;;;;;;5095523;28;20220;-78
2021/05/22 02:13:06;;;;;;;0.90;0.80;;;12.20;99.90;;;;;;5095479;28;20233;-77
2021/05/22 02:15:33;;;;;;;0.73;0.70;;;12.00;99.90;;;;;;5095524;28;20285;-78
2021/05/22 02:18:03;;;;;;;1.10;0.90;;;11.90;99.90;;;;;;5096052;28;20228;-78
2021/05/22 02:20:32;;;;;;;0.70;0.70;;;11.80;99.90;;;;;;5095353;28;20609;-78
2021/05/22 02:23:00;;;;;;;3.13;1.10;;;11.80;99.90;;;;;;5095623;28;20218;-78
2021/05/22 02:25:27;;;;;;;2.20;0.70;;;11.70;99.90;;;;;;5095093;28;20210;-77
2021/05/22 02:27:58;;;;;;;0.90;0.75;;;11.60;99.90;;;;;;5094606;28;20560;-78
2021/05/22 02:30:26;;;;;;;0.80;0.80;;;11.70;99.90;;;;;;5099121;28;20541;-78
2021/05/22 02:32:53;;;;;;;0.80;0.80;;;11.60;99.90;;;;;;5098543;28;20292;-77
2021/05/22 02:35:21;;;;;;;0.65;0.65;;;11.50;99.90;;;;;;5098019;28;20252;-77
2021/05/22 02:37:50;;;;;;;1.20;0.88;;;11.30;99.90;;;;;;5098354;28;20648;-77
2021/05/22 02:40:19;;;;;;;2.75;0.80;;;11.30;99.90;;;;;;5097777;28;20556;-78
2021/05/22 02:42:55;;;;;;;1.90;0.70;;;11.30;99.90;;;;;;5097781;28;20595;-77
2021/05/22 02:45:23;;;;;;;0.68;0.55;;;11.30;99.90;;;;;;5098406;28;21131;-77
2021/05/22 02:47:52;;;;;;;0.60;0.60;;;11.30;99.90;;;;;;5098808;28;20289;-78
2021/05/22 02:50:21;;;;;;;0.70;0.70;;;11.20;99.90;;;;;;5098673;28;20261;-78
2021/05/22 02:52:49;;;;;;;0.70;0.70;;;11.20;99.90;;;;;;5098691;28;20289;-78
2021/05/22 02:55:15;;;;;;;1.05;0.50;;;11.20;99.90;;;;;;5098607;28;20721;-78
2021/05/22 02:57:42;;;;;;;0.63;0.63;;;11.20;99.90;;;;;;5098768;28;20583;-78
2021/05/22 03:00:11;;;;;;;0.70;0.70;;;11.10;99.90;;;;;;5098450;28;20296;-78
2021/05/22 03:02:39;;;;;;;1.08;0.75;;;10.90;99.90;;;;;;5098510;28;20617;-78
2021/05/22 03:05:07;;;;;;;1.17;0.80;;;10.80;99.90;;;;;;5098380;28;20596;-78
2021/05/22 03:07:35;;;;;;;0.95;0.80;;;10.90;99.90;;;;;;5097740;28;20228;-78
2021/05/22 03:10:01;;;;;;;0.80;0.80;;;10.90;99.90;;;;;;5097626;28;20293;-78
2021/05/22 03:12:33;;;;;;;3.17;1.23;;;10.80;99.90;;;;;;5097976;28;20206;-78
2021/05/22 03:14:59;;;;;;;1.20;1.00;;;10.60;99.90;;;;;;5098173;28;20344;-78
2021/05/22 03:17:26;;;;;;;2.05;1.23;;;10.60;99.90;;;;;;5097809;28;20312;-78
2021/05/22 03:19:52;;;;;;;0.60;0.60;;;10.50;99.90;;;;;;5098523;28;20639;-78
2021/05/22 03:22:19;;;;;;;1.60;1.27;;;10.50;99.90;;;;;;5097888;28;20202;-78
2021/05/22 03:24:46;;;;;;;1.25;1.05;;;10.50;99.90;;;;;;5098480;28;20664;-78
2021/05/22 03:27:12;;;;;;;7.88;4.07;;;10.60;99.90;;;;;;5097825;28;20218;-78
2021/05/22 03:29:39;;;;;;;3.72;2.10;;;10.60;99.90;;;;;;5098792;28;20229;-78
2021/05/22 03:32:05;;;;;;;2.95;1.30;;;10.70;99.90;;;;;;5097913;28;20293;-78
2021/05/22 03:34:32;;;;;;;1.20;1.10;;;10.70;99.90;;;;;;5098194;28;20285;-78
2021/05/22 03:36:58;;;;;;;1.85;1.02;;;10.70;99.90;;;;;;5097794;28;20232;-78
2021/05/22 03:39:25;;;;;;;2.13;1.40;;;10.60;99.90;;;;;;5098205;28;20202;-77
2021/05/22 03:41:52;;;;;;;1.75;1.27;;;10.50;99.90;;;;;;5097426;28;20210;-78
2021/05/22 03:44:18;;;;;;;2.00;1.13;;;10.40;99.90;;;;;;5097952;28;20358;-78
2021/05/22 03:46:45;;;;;;;2.50;1.25;;;10.40;99.90;;;;;;5097828;28;20229;-78
2021/05/22 03:49:11;;;;;;;1.20;1.00;;;10.50;99.90;;;;;;5097667;28;20245;-78
2021/05/22 03:51:37;;;;;;;3.00;1.13;;;10.50;99.90;;;;;;5097962;28;20289;-78
2021/05/22 03:54:04;;;;;;;2.97;1.02;;;10.50;99.90;;;;;;5100789;28;20198;-78
2021/05/22 03:56:31;;;;;;;2.25;1.17;;;10.60;99.90;;;;;;5101132;28;20259;-78
2021/05/22 03:58:58;;;;;;;1.08;1.00;;;10.70;99.90;;;;;;5098685;28;20206;-78
2021/05/22 04:01:24;;;;;;;3.53;1.10;;;10.80;99.90;;;;;;5097275;28;20343;-78
2021/05/22 04:03:50;;;;;;;1.50;0.90;;;10.80;99.90;;;;;;5097378;28;20225;-78
2021/05/22 04:06:17;;;;;;;3.38;1.50;;;10.90;99.90;;;;;;5096844;28;20298;-78
2021/05/22 04:08:43;;;;;;;6.95;3.75;;;10.90;99.90;;;;;;5096598;28;20251;-78
2021/05/22 04:11:09;;;;;;;1.50;0.90;;;11.00;99.90;;;;;;5097200;28;20208;-78
2021/05/22 04:13:36;;;;;;;0.88;0.88;;;11.00;99.90;;;;;;5097362;28;20293;-78
2021/05/22 04:16:03;;;;;;;1.45;0.77;;;10.90;99.90;;;;;;5096640;28;20244;-78
2021/05/22 04:18:30;;;;;;;1.15;0.80;;;11.00;99.90;;;;;;5097271;28;20312;-78
2021/05/22 04:20:56;;;;;;;1.00;0.80;;;11.00;99.90;;;;;;5096912;28;20300;-78
2021/05/22 04:23:22;;;;;;;1.38;1.05;;;11.10;99.90;;;;;;5096439;28;20229;-78
2021/05/22 04:25:49;;;;;;;2.35;0.90;;;11.00;99.90;;;;;;5096912;28;20293;-78
2021/05/22 04:28:15;;;;;;;1.02;0.90;;;11.00;99.90;;;;;;5097694;28;20322;-78
2021/05/22 04:30:41;;;;;;;4.50;2.30;;;11.00;99.90;;;;;;5097101;28;20206;-78
2021/05/22 04:33:08;;;;;;;2.60;1.42;;;11.00;99.90;;;;;;5096925;28;20267;-78
2021/05/22 04:35:36;;;;;;;1.38;1.00;;;10.90;99.90;;;;;;5097116;28;20293;-78
2021/05/22 04:38:02;;;;;;;1.33;1.25;;;10.80;99.90;;;;;;5096214;28;20285;-78
2021/05/22 04:40:29;;;;;;;1.98;1.00;;;10.80;99.90;;;;;;5096706;28;20229;-78
2021/05/22 04:42:55;;;;;;;1.13;0.75;;;10.80;99.90;;;;;;5096000;28;20248;-78
2021/05/22 04:45:21;;;;;;;0.80;0.80;;;10.80;99.90;;;;;;5096182;28;20544;-78
2021/05/22 04:47:48;;;;;;;2.45;1.42;;;10.70;99.90;;;;;;5095917;28;20702;-78
2021/05/22 04:50:15;;;;;;;1.20;1.10;;;10.70;99.90;;;;;;5096883;28;20293;-78
2021/05/22 04:52:42;;;;;;;1.58;1.20;;;10.60;99.90;;;;;;5094951;28;20202;-78
2021/05/22 04:55:09;;;;;;;1.23;0.90;;;10.50;99.90;;;;;;5096253;28;20213;-78
2021/05/22 04:57:36;;;;;;;0.63;0.63;;;10.50;99.90;;;;;;5095443;28;20329;-78
2021/05/22 05:00:02;;;;;;;1.45;0.98;;;10.50;99.90;;;;;;5096631;28;20728;-78
2021/05/22 05:02:29;;;;;;;0.63;0.63;;;10.60;99.90;;;;;;5096309;28;20712;-78
2021/05/22 05:04:55;;;;;;;1.58;0.90;;;10.70;99.90;;;;;;5096396;28;20297;-78
2021/05/22 05:07:22;;;;;;;2.97;1.05;;;10.80;99.90;;;;;;5095865;28;20229;-78
2021/05/22 05:09:51;;;;;;;1.58;0.73;;;10.90;99.90;;;;;;5096530;28;20290;-78
2021/05/22 05:12:17;;;;;;;3.42;0.90;;;10.90;99.90;;;;;;5096023;28;20336;-78
2021/05/22 05:14:44;;;;;;;1.23;1.05;;;11.10;99.90;;;;;;5096083;28;20585;-78
2021/05/22 05:17:10;;;;;;;1.48;0.90;;;11.10;99.90;;;;;;5095690;28;20730;-78
2021/05/22 05:19:36;;;;;;;2.75;1.00;;;11.10;99.90;;;;;;5095575;28;20201;-78
2021/05/22 05:22:03;;;;;;;0.70;0.70;;;11.10;99.90;;;;;;5095863;28;20231;-78
2021/05/22 05:24:30;;;;;;;1.88;1.00;;;11.10;99.90;;;;;;5095690;28;20695;-78
2021/05/22 05:26:56;;;;;;;1.20;0.90;;;11.20;99.90;;;;;;5095610;28;20321;-78
2021/05/22 05:29:23;;;;;;;1.30;1.20;;;11.10;99.90;;;;;;5095788;28;20313;-78
2021/05/22 05:31:49;;;;;;;1.30;1.10;;;11.20;99.90;;;;;;5096014;28;20208;-78
2021/05/22 05:34:16;;;;;;;1.65;1.00;;;11.30;99.90;;;;;;5095558;28;20202;-78
2021/05/22 05:36:42;;;;;;;0.95;0.80;;;11.30;99.90;;;;;;5095517;28;20604;-78
2021/05/22 05:39:10;;;;;;;3.33;0.80;;;11.30;99.90;;;;;;5095538;28;20206;-78
2021/05/22 05:41:37;;;;;;;0.80;0.80;;;11.40;99.90;;;;;;5096371;28;20548;-78
2021/05/22 05:44:04;;;;;;;1.25;0.93;;;11.40;99.90;;;;;;5096512;28;20226;-78
2021/05/22 05:46:30;;;;;;;1.00;0.90;;;11.40;99.90;;;;;;5102520;28;20293;-78
2021/05/22 05:48:57;;;;;;;1.20;1.10;;;11.40;99.90;;;;;;5105762;28;20205;-78
2021/05/22 05:51:23;;;;;;;1.30;1.23;;;11.50;99.90;;;;;;5096420;28;20284;-78
2021/05/22 05:53:49;;;;;;;2.42;1.40;;;11.50;99.90;;;;;;5095504;28;20194;-78
2021/05/22 05:56:16;;;;;;;1.25;1.10;;;11.70;99.90;;;;;;5095237;28;20296;-78
2021/05/22 05:58:43;;;;;;;1.67;0.90;;;11.80;99.90;;;;;;5095644;28;20253;-78
2021/05/22 06:01:13;;;;;;;1.60;1.25;;;11.80;99.90;;;;;;5095282;28;20232;-78
2021/05/22 06:03:40;;;;;;;4.75;0.98;;;11.90;99.90;;;;;;5095652;28;20221;-78
2021/05/22 06:06:07;;;;;;;2.10;1.10;;;11.90;99.90;;;;;;5099276;28;20202;-78
2021/05/22 06:08:33;;;;;;;1.25;1.15;;;11.90;99.90;;;;;;5099619;28;20312;-78
2021/05/22 06:11:01;;;;;;;2.15;1.13;;;11.90;99.90;;;;;;5099346;28;20198;-78
2021/05/22 06:13:30;;;;;;;0.82;0.80;;;11.90;99.90;;;;;;5099119;28;20551;-78
2021/05/22 06:16:02;;;;;;;1.30;1.10;;;11.90;99.90;;;;;;5099076;28;20240;-78
2021/05/22 06:18:33;;;;;;;2.45;1.20;;;12.00;99.90;;;;;;5099070;28;20228;-78
2021/05/22 06:21:00;;;;;;;1.75;1.17;;;11.90;99.90;;;;;;5099120;28;20198;-78
2021/05/22 06:23:26;;;;;;;2.08;0.90;;;11.90;99.90;;;;;;5099113;28;20698;-78
2021/05/22 06:25:53;;;;;;;1.38;1.25;;;12.00;99.90;;;;;;5099126;28;20226;-78
2021/05/22 06:28:19;;;;;;;1.20;1.10;;;12.10;99.90;;;;;;5098668;28;20616;-78
2021/05/22 06:30:46;;;;;;;1.90;1.00;;;12.10;99.90;;;;;;5098445;28;20206;-78
2021/05/22 06:33:13;;;;;;;1.40;1.30;;;12.10;99.90;;;;;;5098272;28;20226;-78
2021/05/22 06:35:41;;;;;;;3.25;2.90;;;12.30;99.90;;;;;;5098342;28;20279;-78
2021/05/22 06:38:07;;;;;;;2.38;1.23;;;12.50;99.90;;;;;;5098726;28;20572;-78
2021/05/22 06:40:33;;;;;;;3.63;1.30;;;12.60;99.90;;;;;;5099094;28;20281;-78
2021/05/22 06:43:00;;;;;;;2.83;1.25;;;12.80;99.90;;;;;;5098772;28;20317;-78
2021/05/22 06:45:28;;;;;;;2.25;1.30;;;13.00;99.90;;;;;;5098324;28;20284;-78
2021/05/22 06:47:54;;;;;;;4.00;1.55;;;13.10;99.90;;;;;;5098700;28;20300;-78
2021/05/22 06:50:21;;;;;;;5.15;1.20;;;13.20;99.90;;;;;;5098565;28;20289;-78
2021/05/22 06:52:48;;;;;;;1.90;1.10;;;13.40;99.90;;;;;;5098159;28;20281;-78
2021/05/22 06:55:14;;;;;;;1.40;1.30;;;13.40;99.90;;;;;;5098490;28;20562;-78
2021/05/22 06:57:40;;;;;;;1.60;1.27;;;13.60;99.90;;;;;;5098042;28;20610;-78
2021/05/22 07:00:08;;;;;;;2.75;1.25;;;13.80;99.90;;;;;;5097987;28;20293;-78
2021/05/22 07:02:34;;;;;;;1.30;1.20;;;13.90;99.90;;;;;;5098055;28;20233;-78
2021/05/22 07:05:01;;;;;;;3.00;1.00;;;14.10;99.90;;;;;;5097953;28;20289;-77
2021/05/22 07:07:28;;;;;;;1.08;0.80;;;14.00;99.90;;;;;;5097948;28;20312;-78
2021/05/22 07:09:54;;;;;;;2.80;1.02;;;14.00;99.90;;;;;;5098216;28;20234;-78
2021/05/22 07:12:20;;;;;;;1.25;1.15;;;14.00;99.40;;;;;;5097183;28;20563;-78
2021/05/22 07:14:47;;;;;;;1.52;1.08;;;14.20;99.30;;;;;;5097054;28;20266;-78
2021/05/22 07:17:13;;;;;;;2.53;1.08;;;14.40;98.00;;;;;;5097381;28;20314;-78
2021/05/22 07:19:39;;;;;;;1.65;1.00;;;14.40;96.90;;;;;;5097113;28;20680;-78
2021/05/22 07:22:06;;;;;;;2.00;1.13;;;14.30;97.20;;;;;;5098256;28;20206;-78
2021/05/22 07:24:33;;;;;;;2.22;1.30;;;14.30;97.00;;;;;;5097207;28;20280;-77
2021/05/22 07:26:59;;;;;;;1.90;1.05;;;14.20;96.80;;;;;;5096696;28;20227;-78
2021/05/22 07:29:27;;;;;;;2.42;1.20;;;14.20;96.30;;;;;;5097925;28;20233;-78
2021/05/22 07:31:53;;;;;;;1.30;1.20;;;14.10;96.40;;;;;;5100912;28;20255;-78
2021/05/22 07:34:19;;;;;;;1.35;1.10;;;14.00;96.40;;;;;;5101240;28;20698;-78
2021/05/22 07:36:46;;;;;;;1.73;1.10;;;14.00;96.60;;;;;;5097786;28;20237;-79
2021/05/22 07:39:13;;;;;;;1.48;1.25;;;14.10;95.90;;;;;;5097463;28;20531;-78
2021/05/22 07:41:41;;;;;;;1.13;1.08;;;14.30;95.40;;;;;;5098076;28;20791;-78
2021/05/22 07:44:09;;;;;;;1.38;1.13;;;14.50;95.40;;;;;;5097499;28;20310;-78
2021/05/22 07:46:35;;;;;;;2.67;1.10;;;14.50;94.80;;;;;;5096490;28;20711;-78
2021/05/22 07:49:03;;;;;;;1.10;0.90;;;14.60;93.90;;;;;;5097369;28;20623;-78
2021/05/22 07:51:30;;;;;;;2.20;1.08;;;14.70;93.60;;;;;;5097603;28;20290;-78
2021/05/22 07:53:56;;;;;;;2.88;1.50;;;15.00;93.40;;;;;;5096625;28;20223;-78
2021/05/22 07:56:23;;;;;;;1.73;0.88;;;15.20;92.80;;;;;;5096585;28;20553;-78
2021/05/22 07:58:50;;;;;;;1.48;0.98;;;15.00;93.20;;;;;;5096751;28;20224;-78
2021/05/22 08:01:16;;;;;;;3.08;1.13;;;15.10;93.20;;;;;;5096677;28;20296;-78
2021/05/22 08:03:42;;;;;;;2.45;1.00;;;16.10;92.10;;;;;;5096797;28;20355;-78
2021/05/22 08:06:09;;;;;;;1.08;0.95;;;17.20;85.30;;;;;;5096886;28;20289;-78
2021/05/22 08:08:35;;;;;;;2.42;1.38;;;17.90;82.80;;;;;;5097157;28;20316;-78
2021/05/22 08:11:02;;;;;;;4.38;0.93;;;18.60;80.10;;;;;;5097843;28;20233;-78
2021/05/22 08:13:29;;;;;;;1.67;0.80;;;18.90;75.30;;;;;;5096556;28;20198;-78
2021/05/22 08:15:57;;;;;;;2.58;1.00;;;18.90;70.00;;;;;;5096434;28;20286;-79
2021/05/22 08:18:24;;;;;;;2.37;1.10;;;18.70;69.20;;;;;;5096617;28;20227;-78
2021/05/22 08:20:53;;;;;;;3.47;1.93;;;19.60;64.70;;;;;;5096974;28;20451;-79
2021/05/22 08:23:19;;;;;;;3.20;1.53;;;20.60;61.40;;;;;;5097338;28;20573;-79
2021/05/22 08:25:45;;;;;;;1.10;0.70;;;22.20;56.90;;;;;;5097570;28;20480;-78
2021/05/22 08:28:13;;;;;;;1.40;0.70;;;23.80;52.20;;;;;;5087937;28;20466;-75
2021/05/22 08:30:40;;;;;;;1.13;0.90;;;24.90;49.00;;;;;;5077619;28;20445;-75
2021/05/22 08:33:07;;;;;;;0.83;0.83;;;26.10;45.70;;;;;;5075048;28;20531;-74
2021/05/22 08:35:33;;;;;;;2.27;1.63;;;25.50;41.50;;;;;;5074601;28;20535;-75
2021/05/22 08:37:59;;;;;;;1.40;1.30;;;25.70;42.60;;;;;;5074908;28;20552;-78
2021/05/22 08:40:27;;;;;;;2.00;0.80;;;26.10;41.50;;;;;;5075066;28;20442;-75
2021/05/22 08:42:54;;;;;;;0.70;0.70;;;26.90;41.10;;;;;;5074395;28;20460;-75
2021/05/22 08:45:23;;;;;;;1.40;0.87;;;26.20;38.90;;;;;;5074615;28;20535;-74
2021/05/22 08:47:51;;;;;;;1.63;0.90;;;26.10;38.60;;;;;;5074654;28;20469;-75
2021/05/22 08:50:18;;;;;;;1.17;0.80;;;25.80;39.50;;;;;;5074380;28;20495;-75
2021/05/22 08:52:45;;;;;;;0.80;0.80;;;25.90;39.40;;;;;;5074503;28;20456;-77
2021/05/22 08:55:12;;;;;;;1.00;0.80;;;26.10;39.70;;;;;;5074768;28;20443;-77
2021/05/22 08:57:39;;;;;;;1.37;0.90;;;26.90;38.60;;;;;;5073827;28;20993;-77
2021/05/22 09:00:10;;;;;;;1.90;0.70;;;27.40;37.40;;;;;;5074712;28;20441;-77
2021/05/22 09:02:39;;;;;;;1.13;0.90;;;28.00;36.60;;;;;;5074209;28;20528;-76
2021/05/22 09:05:10;;;;;;;2.00;0.93;;;26.90;35.20;;;;;;5074123;28;20834;-77
2021/05/22 09:07:40;;;;;;;1.97;0.70;;;25.20;38.00;;;;;;5074221;28;20478;-77
2021/05/22 09:10:09;;;;;;;1.80;1.00;;;25.00;38.40;;;;;;5074560;28;20448;-77
2021/05/22 09:12:36;;;;;;;2.10;1.10;;;25.40;37.90;;;;;;5074346;28;20453;-77
2021/05/22 09:15:08;;;;;;;1.77;1.00;;;26.00;37.50;;;;;;5073900;28;20835;-77
2021/05/22 09:17:34;;;;;;;1.27;0.90;;;26.40;37.90;;;;;;5074276;28;20522;-79
2021/05/22 09:20:12;;;;;;;0.93;0.67;;;27.10;36.30;;;;;;5081907;28;20444;-78
2021/05/22 09:22:39;;;;;;;1.63;1.47;;;28.00;34.80;;;;;;5093223;28;20440;-75
2021/05/22 09:25:09;;;;;;;2.50;1.40;;;28.10;34.20;;;;;;5096226;28;20509;-78
2021/05/22 09:27:38;;;;;;;1.07;0.97;;;28.00;33.50;;;;;;5095422;28;20466;-76
2021/05/22 09:30:11;;;;;;;1.40;1.30;;;28.10;33.10;;;;;;5094288;28;20443;-77
2021/05/22 09:32:37;;;;;;;1.30;0.90;;;27.90;32.30;;;;;;5093908;28;20538;-77
2021/05/22 09:35:05;;;;;;;1.13;0.80;;;27.50;33.60;;;;;;5093866;28;20480;-77
2021/05/22 09:37:44;;;;;;;3.63;1.00;;;27.90;33.60;;;;;;5092319;28;20477;-77
2021/05/22 09:40:12;;;;;;;0.83;0.80;;;27.90;32.50;;;;;;5092632;28;20444;-77
2021/05/22 09:42:41;;;;;;;1.27;0.90;;;28.30;33.00;;;;;;5092323;28;20453;-77
2021/05/22 09:45:24;;;;;;;0.97;0.87;;;29.20;33.10;;;;;;5092437;28;20524;-76
2021/05/22 09:47:51;;;;;;;1.43;0.60;;;29.80;30.90;;;;;;5092549;28;20838;-76
2021/05/22 09:50:33;;;;;;;0.70;0.70;;;28.10;31.80;;;;;;5092728;28;20444;-77
2021/05/22 09:53:01;;;;;;;0.87;0.87;;;26.90;33.10;;;;;;5092876;28;20459;-75
2021/05/22 09:55:28;;;;;;;2.67;2.10;;;26.20;34.90;;;;;;5092786;28;20999;-76
2021/05/22 09:57:56;;;;;;;1.60;1.00;;;25.50;36.20;;;;;;5093499;28;20467;-75
2021/05/22 10:00:24;;;;;;;0.73;0.73;;;26.00;35.20;;;;;;5092775;28;20452;-76
2021/05/22 10:02:52;;;;;;;0.70;0.70;;;26.10;35.00;;;;;;5092016;28;20491;-75
2021/05/22 10:05:21;;;;;;;0.80;0.70;;;25.90;35.30;;;;;;5092450;28;20497;-75
2021/05/22 10:07:49;;;;;;;1.00;1.00;;;24.80;36.20;;;;;;5092305;28;20972;-76
2021/05/22 10:10:18;;;;;;;1.53;0.70;;;24.20;37.20;;;;;;5092291;28;20550;-76
2021/05/22 10:12:46;;;;;;;1.67;0.83;;;25.00;37.40;;;;;;5091962;28;20527;-76
2021/05/22 10:15:14;;;;;;;4.13;1.10;;;25.60;36.70;;;;;;5092476;28;20448;-77
2021/05/22 10:17:42;;;;;;;0.80;0.80;;;26.30;35.30;;;;;;5092137;28;20475;-76
2021/05/22 10:20:09;;;;;;;1.37;0.67;;;26.80;35.30;;;;;;5092159;28;20487;-76
2021/05/22 10:22:36;;;;;;;0.70;0.60;;;26.60;34.60;;;;;;5091698;28;20543;-76
2021/05/22 10:25:05;;;;;;;1.37;1.00;;;26.90;34.30;;;;;;5092195;28;20993;-75
2021/05/22 10:27:33;;;;;;;0.80;0.67;;;27.00;33.80;;;;;;5092018;28;20472;-77
2021/05/22 10:30:00;;;;;;;2.73;0.80;;;27.00;34.10;;;;;;5091857;28;20452;-76
2021/05/22 10:32:27;;;;;;;0.70;0.70;;;27.10;34.80;;;;;;5091950;28;20610;-76
2021/05/22 10:34:55;;;;;;;1.57;0.87;;;26.70;34.70;;;;;;5092093;28;20527;-76
2021/05/22 10:37:43;;;;;;;0.60;0.60;;;25.90;35.80;;;;;;5092259;28;20882;-76
2021/05/22 10:40:12;;;;;;;0.83;0.70;;;25.10;37.40;;;;;;5092235;28;20439;-76
2021/05/22 10:42:49;;;;;;;0.80;0.80;;;24.10;37.30;;;;;;5091521;28;20457;-75
2021/05/22 10:45:28;;;;;;;1.00;0.90;;;22.90;37.90;;;;;;5092055;28;20491;-75
2021/05/22 10:47:55;;;;;;;0.87;0.80;;;22.20;39.80;;;;;;5092055;28;20546;-76
2021/05/22 10:50:52;;;;;;;3.40;1.00;;;21.50;39.90;;;;;;5092893;28;21175;-76
2021/05/22 10:53:24;;;;;;;1.23;0.80;;;21.10;39.70;;;;;;5032599;28;20528;-76
2021/05/22 10:56:14;;;;;;;0.60;0.60;;;20.70;41.50;;;;;;5083640;28;20516;-79
2021/05/22 10:59:15;;;;;;;1.70;0.70;;;20.30;41.30;;;;;;5095503;28;20469;-75
2021/05/22 11:01:45;;;;;;;2.00;1.42;;;19.80;42.80;;;;;;5095069;28;20444;-75
2021/05/22 11:04:36;;;;;;;2.55;1.30;;;19.50;43.70;;;;;;5095031;28;20258;-75
2021/05/22 11:07:19;;;;;;;1.90;0.90;;;19.00;43.00;;;;;;5095250;28;20229;-75
2021/05/22 11:09:51;;;;;;;0.93;0.90;;;18.70;42.70;;;;;;5093344;28;20320;-75
2021/05/22 11:12:50;;;;;;;0.60;0.60;;;18.80;43.60;;;;;;5094732;28;20198;-75
2021/05/22 11:15:39;;;;;;;0.95;0.60;;;19.00;41.70;;;;;;5095213;28;20202;-75
2021/05/22 11:18:08;;;;;;;0.73;0.73;;;19.00;41.80;;;;;;5095404;28;20313;-76
2021/05/22 11:20:36;;;;;;;1.20;0.80;;;18.80;39.80;;;;;;5095857;28;20294;-75
2021/05/22 11:23:03;;;;;;;1.20;0.80;;;18.90;41.10;;;;;;5094551;28;20198;-76
2021/05/22 11:25:45;;;;;;;0.88;0.63;;;18.70;40.50;;;;;;5094822;28;20202;-75
2021/05/22 11:28:18;;;;;;;2.05;0.90;;;18.60;40.80;;;;;;5094595;28;20256;-75
2021/05/22 11:30:50;;;;;;;0.90;0.70;;;18.40;42.10;;;;;;5094562;28;20205;-76
2021/05/22 11:33:31;;;;;;;0.95;0.57;;;18.50;43.20;;;;;;5094501;28;20214;-76
2021/05/22 11:36:00;;;;;;;1.20;0.77;;;18.70;42.50;;;;;;5094609;28;20206;-76
2021/05/22 11:38:37;;;;;;;1.05;0.80;;;18.90;42.90;;;;;;5094474;28;20225;-76
2021/05/22 11:41:29;;;;;;;1.98;1.50;;;19.10;42.60;;;;;;5094545;28;20202;-76
2021/05/22 11:44:11;;;;;;;1.95;0.90;;;19.00;42.50;;;;;;5094107;28;20235;-76
2021/05/22 11:46:37;;;;;;;4.90;1.98;;;19.00;40.70;;;;;;5092200;28;20288;-76
2021/05/22 11:49:04;;;;;;;0.70;0.70;;;19.30;42.50;;;;;;5094676;28;20563;-76
2021/05/22 11:51:37;;;;;;;1.50;0.70;;;19.60;40.50;;;;;;5094308;28;20449;-76
2021/05/22 11:54:05;;;;;;;1.60;1.10;;;19.70;40.10;;;;;;5094180;28;20495;-76
2021/05/22 11:56:33;;;;;;;1.30;1.10;;;19.80;40.10;;;;;;5094336;28;20456;-76
2021/05/22 11:59:01;;;;;;;0.90;0.90;;;19.70;40.50;;;;;;5094259;28;20441;-76
2021/05/22 12:01:31;;;;;;;1.47;0.73;;;19.60;40.50;;;;;;5093842;28;20211;-76
2021/05/22 12:04:00;;;;;;;0.85;0.80;;;19.60;41.50;;;;;;5093834;28;20484;-76
2021/05/22 12:06:34;;;;;;;2.47;0.90;;;19.40;40.20;;;;;;5093951;28;20250;-76
2021/05/22 12:09:07;;;;;;;0.70;0.70;;;19.30;41.20;;;;;;5094171;28;20202;-76
2021/05/22 12:11:34;;;;;;;0.65;0.60;;;19.30;40.40;;;;;;5093840;28;20531;-75
2021/05/22 12:14:02;;;;;;;4.73;3.23;;;19.40;40.70;;;;;;5093846;28;20277;-74
2021/05/22 12:16:29;;;;;;;1.17;0.70;;;19.60;42.20;;;;;;5093748;28;20454;-74
2021/05/22 12:18:56;;;;;;;2.00;0.87;;;19.60;40.90;;;;;;5093943;28;20481;-75
2021/05/22 12:21:31;;;;;;;0.85;0.85;;;19.50;41.10;;;;;;5093577;28;20564;-75
2021/05/22 12:24:03;;;;;;;0.70;0.70;;;19.50;42.10;;;;;;5093407;28;20231;-76
2021/05/22 12:26:30;;;;;;;0.73;0.70;;;19.50;42.40;;;;;;5093569;28;20285;-76
2021/05/22 12:28:56;;;;;;;1.13;0.80;;;19.80;42.50;;;;;;5093706;28;20558;-75
2021/05/22 12:31:23;;;;;;;1.10;0.80;;;20.00;40.90;;;;;;5093488;28;20453;-77
2021/05/22 12:34:02;;;;;;;1.13;0.80;;;20.20;41.30;;;;;;5093321;28;20447;-75
2021/05/22 12:36:29;;;;;;;0.70;0.70;;;20.30;41.50;;;;;;5093572;28;20490;-76
2021/05/22 12:38:57;;;;;;;0.93;0.90;;;20.30;42.20;;;;;;5093407;28;20519;-75
2021/05/22 12:41:37;;;;;;;0.70;0.70;;;20.10;41.70;;;;;;5093440;28;20450;-75
2021/05/22 12:44:06;;;;;;;1.33;1.00;;;20.00;41.20;;;;;;5093249;28;20476;-77
2021/05/22 12:46:34;;;;;;;0.90;0.67;;;19.90;39.90;;;;;;5095354;28;20452;-74
2021/05/22 12:49:18;;;;;;;0.80;0.70;;;19.70;40.60;;;;;;5095258;28;20552;-73
2021/05/22 12:51:57;;;;;;;2.13;0.93;;;19.60;40.60;;;;;;5095900;28;20445;-74
2021/05/22 12:54:32;;;;;;;0.70;0.63;;;19.60;41.60;;;;;;5095095;28;20513;-73
2021/05/22 12:57:00;;;;;;;1.53;0.93;;;19.50;42.10;;;;;;5094894;28;20543;-74